createdAt,value
2022-11-15T00:01:01.881Z,17.60
2022-11-15T00:03:29.682Z,17.38
2022-11-15T00:06:02.765Z,14.07
2022-11-15T00:08:34.271Z,14.20
2022-11-15T00:11:02.772Z,14.13
2022-11-15T00:13:31.194Z,21.10
2022-11-15T00:15:59.856Z,18.80
2022-11-15T00:18:27.858Z,21.73
2022-11-15T00:20:55.499Z,20.05
2022-11-15T00:23:23.239Z,18.42
2022-11-15T00:25:57.949Z,19.85
2022-11-15T00:28:25.836Z,14.63
2022-11-15T00:30:53.785Z,13.65
2022-11-15T00:33:22.620Z,14.77
2022-11-15T00:35:50.205Z,13.27
2022-11-15T00:38:17.837Z,18.00
2022-11-15T00:40:45.144Z,15.18
2022-11-15T00:43:12.776Z,15.90
2022-11-15T00:45:40.574Z,13.23
2022-11-15T00:48:08.087Z,12.75
2022-11-15T00:50:35.479Z,13.25
2022-11-15T00:53:03.056Z,11.23
2022-11-15T00:55:30.610Z,14.63
2022-11-15T00:57:58.316Z,11.98
2022-11-15T01:00:25.928Z,12.38
2022-11-15T01:02:53.359Z,13.88
2022-11-15T01:05:20.869Z,13.70
2022-11-15T01:07:48.367Z,13.40
2022-11-15T01:10:15.906Z,14.82
2022-11-15T01:12:43.446Z,11.70
2022-11-15T01:15:11.406Z,14.23
2022-11-15T01:17:39.028Z,11.68
2022-11-15T01:20:06.886Z,12.02
2022-11-15T01:22:34.499Z,9.50
2022-11-15T01:25:01.969Z,11.57
2022-11-15T01:27:29.536Z,11.55
2022-11-15T01:29:57.329Z,11.25
2022-11-15T01:32:25.254Z,11.30
2022-11-15T01:34:52.916Z,12.30
2022-11-15T01:37:20.726Z,10.63
2022-11-15T01:39:48.170Z,11.45
2022-11-15T01:42:16.258Z,9.38
2022-11-15T01:44:46.277Z,14.18
2022-11-15T01:47:13.794Z,10.13
2022-11-15T01:49:42.226Z,15.90
2022-11-15T01:52:12.650Z,12.82
2022-11-15T01:54:40.405Z,10.70
2022-11-15T01:57:09.688Z,11.55
2022-11-15T01:59:38.499Z,13.25
2022-11-15T02:02:06.329Z,11.02
2022-11-15T02:04:34.946Z,13.38
2022-11-15T02:07:04.088Z,14.20
2022-11-15T02:09:31.904Z,12.30
2022-11-15T02:11:59.565Z,10.80
2022-11-15T02:14:28.865Z,12.27
2022-11-15T02:17:08.476Z,9.45
2022-11-15T02:19:35.906Z,8.85
2022-11-15T02:22:09.576Z,9.43
2022-11-15T02:24:44.600Z,10.32
2022-11-15T02:27:30.665Z,10.27
2022-11-15T02:30:13.482Z,10.30
2022-11-15T02:32:50.735Z,9.85
2022-11-15T02:35:24.375Z,11.05
2022-11-15T02:38:14.751Z,10.10
2022-11-15T02:40:47.802Z,9.70
2022-11-15T02:43:38.161Z,12.10
2022-11-15T02:46:12.131Z,10.07
2022-11-15T02:48:39.958Z,11.73
2022-11-15T02:51:07.881Z,11.77
2022-11-15T02:53:35.589Z,9.60
2022-11-15T02:56:03.305Z,12.43
2022-11-15T02:58:34.260Z,13.60
2022-11-15T03:01:10.652Z,12.55
2022-11-15T03:03:56.637Z,12.88
2022-11-15T03:06:30.337Z,8.52
2022-11-15T03:09:06.235Z,11.13
2022-11-15T03:11:36.900Z,10.43
2022-11-15T03:14:10.236Z,9.80
2022-11-15T03:16:57.900Z,12.52
2022-11-15T03:19:38.014Z,11.65
2022-11-15T03:22:07.161Z,13.93
2022-11-15T03:24:36.663Z,11.35
2022-11-15T03:27:05.160Z,11.90
2022-11-15T03:29:36.368Z,10.18
2022-11-15T03:32:18.689Z,10.60
2022-11-15T03:34:49.690Z,10.95
2022-11-15T03:37:18.073Z,9.50
2022-11-15T03:39:45.850Z,10.10
2022-11-15T03:42:32.384Z,10.57
2022-11-15T03:45:15.234Z,10.10
2022-11-15T03:47:46.294Z,12.98
2022-11-15T03:50:14.980Z,13.35
2022-11-15T03:52:43.378Z,10.82
2022-11-15T03:55:13.032Z,12.20
2022-11-15T03:57:40.435Z,10.20
2022-11-15T04:00:08.344Z,14.25
2022-11-15T04:02:36.134Z,10.25
2022-11-15T04:05:03.631Z,11.63
2022-11-15T04:07:31.213Z,8.77
2022-11-15T04:10:04.933Z,11.73
2022-11-15T04:12:33.324Z,9.10
2022-11-15T04:15:08.571Z,11.10
2022-11-15T04:17:56.515Z,11.75
2022-11-15T04:20:47.301Z,11.60
2022-11-15T04:23:37.712Z,10.60
2022-11-15T04:26:06.600Z,14.00
2022-11-15T04:28:34.123Z,12.07
2022-11-15T04:31:01.925Z,9.80
2022-11-15T04:33:29.543Z,11.15
2022-11-15T04:36:15.801Z,11.63
2022-11-15T04:38:43.494Z,11.48
2022-11-15T04:41:11.012Z,11.32
2022-11-15T04:43:38.634Z,10.63
2022-11-15T04:46:06.272Z,13.52
2022-11-15T04:48:33.795Z,9.30
2022-11-15T04:51:01.330Z,10.07
2022-11-15T04:53:29.492Z,12.55
2022-11-15T04:55:57.161Z,10.48
2022-11-15T04:58:24.533Z,10.18
2022-11-15T05:00:52.185Z,11.30
2022-11-15T05:03:38.463Z,10.40
2022-11-15T05:06:06.417Z,9.68
2022-11-15T05:08:33.861Z,13.82
2022-11-15T05:11:01.591Z,10.77
2022-11-15T05:13:29.515Z,10.00
2022-11-15T05:15:57.529Z,11.55
2022-11-15T05:18:25.081Z,9.30
2022-11-15T05:20:52.621Z,12.10
2022-11-15T05:23:20.143Z,11.43
2022-11-15T05:25:47.521Z,11.75
2022-11-15T05:28:15.365Z,10.50
2022-11-15T05:30:43.174Z,12.38
2022-11-15T05:33:10.953Z,11.77
2022-11-15T05:35:43.511Z,12.35
2022-11-15T05:38:11.274Z,13.07
2022-11-15T05:40:38.802Z,12.60
2022-11-15T05:43:06.799Z,12.38
2022-11-15T05:45:36.320Z,11.43
2022-11-15T05:48:06.300Z,10.52
2022-11-15T05:50:34.000Z,12.43
2022-11-15T05:53:05.312Z,10.75
2022-11-15T05:55:33.701Z,14.63
2022-11-15T05:58:02.379Z,11.38
2022-11-15T06:00:30.580Z,9.55
2022-11-15T06:02:58.003Z,13.50
2022-11-15T06:05:25.761Z,9.85
2022-11-15T06:07:53.264Z,10.75
2022-11-15T06:10:20.815Z,13.48
2022-11-15T06:12:48.404Z,13.00
2022-11-15T06:15:16.020Z,11.45
2022-11-15T06:17:43.293Z,12.43
2022-11-15T06:20:11.661Z,10.07
2022-11-15T06:22:39.292Z,14.05
2022-11-15T06:25:07.092Z,16.45
2022-11-15T06:27:34.581Z,9.52
2022-11-15T06:30:02.011Z,10.95
2022-11-15T06:32:31.902Z,12.63
2022-11-15T06:34:59.380Z,9.23
2022-11-15T06:37:29.885Z,9.38
2022-11-15T06:39:57.632Z,10.07
2022-11-15T06:42:25.061Z,11.65
2022-11-15T06:44:52.871Z,13.40
2022-11-15T06:47:20.204Z,13.88
2022-11-15T06:49:47.874Z,16.35
2022-11-15T06:52:15.421Z,17.58
2022-11-15T06:54:42.983Z,18.40
2022-11-15T06:57:10.551Z,20.20
2022-11-15T06:59:40.604Z,18.63
2022-11-15T07:02:08.515Z,18.42
2022-11-15T07:04:37.443Z,14.00
2022-11-15T07:07:05.065Z,15.07
2022-11-15T07:09:32.660Z,19.35
2022-11-15T07:12:06.181Z,23.92
2022-11-15T07:14:35.145Z,18.70
2022-11-15T07:17:05.141Z,13.15
2022-11-15T07:19:33.002Z,14.93
2022-11-15T07:22:00.462Z,16.33
2022-11-15T07:24:28.259Z,17.73
2022-11-15T07:26:56.195Z,18.80
2022-11-15T07:29:23.762Z,35.65
2022-11-15T07:31:52.010Z,25.20
2022-11-15T07:34:19.647Z,24.27
2022-11-15T07:36:47.222Z,18.38
2022-11-15T07:39:15.412Z,16.20
2022-11-15T07:41:44.701Z,18.08
2022-11-15T07:44:12.949Z,17.48
2022-11-15T07:46:40.462Z,17.48
2022-11-15T07:49:08.079Z,18.35
2022-11-15T07:51:35.624Z,21.42
2022-11-15T07:54:03.465Z,18.17
2022-11-15T07:56:31.078Z,17.50
2022-11-15T07:58:58.825Z,16.30
2022-11-15T08:01:26.541Z,17.33
2022-11-15T08:03:54.132Z,16.35
2022-11-15T08:06:21.669Z,16.52
2022-11-15T08:08:49.732Z,24.48
2022-11-15T08:11:17.430Z,19.35
2022-11-15T08:13:44.991Z,19.77
2022-11-15T08:16:14.210Z,19.05
2022-11-15T08:18:41.776Z,19.73
2022-11-15T08:21:15.640Z,18.10
2022-11-15T08:23:45.780Z,17.77
2022-11-15T08:26:13.586Z,15.75
2022-11-15T08:28:41.137Z,14.65
2022-11-15T08:31:08.953Z,13.68
2022-11-15T08:33:37.456Z,15.55
2022-11-15T08:36:05.274Z,11.88
2022-11-15T08:38:33.269Z,15.05
2022-11-15T08:41:03.193Z,14.43
2022-11-15T08:43:31.109Z,15.98
2022-11-15T08:45:59.393Z,14.25
2022-11-15T08:48:27.399Z,16.13
2022-11-15T08:50:58.751Z,12.98
2022-11-15T08:53:26.398Z,15.48
2022-11-15T08:55:53.791Z,22.33
2022-11-15T08:58:21.407Z,13.95
2022-11-15T09:00:48.785Z,12.32
2022-11-15T09:03:16.595Z,11.88
2022-11-15T09:05:44.173Z,12.02
2022-11-15T09:08:32.897Z,10.00
2022-11-15T09:11:00.086Z,10.35
2022-11-15T09:13:27.505Z,9.45
2022-11-15T09:15:54.866Z,9.02
2022-11-15T09:18:24.073Z,7.32
2022-11-15T09:20:51.624Z,8.95
2022-11-15T09:23:19.691Z,9.70
2022-11-15T09:25:47.222Z,8.45
2022-11-15T09:28:14.913Z,8.88
2022-11-15T09:30:42.462Z,8.68
2022-11-15T09:33:11.025Z,13.27
2022-11-15T09:35:38.771Z,9.45
2022-11-15T09:38:07.193Z,10.05
2022-11-15T09:40:37.614Z,12.80
2022-11-15T09:43:25.862Z,11.90
2022-11-15T09:46:09.565Z,10.70
2022-11-15T09:48:46.174Z,14.97
2022-11-15T09:51:20.985Z,13.02
2022-11-15T09:56:42.449Z,8.60
2022-11-15T09:59:19.772Z,7.68
2022-11-15T10:02:11.273Z,11.98
2022-11-15T10:04:40.675Z,11.45
2022-11-15T10:07:21.410Z,8.50
2022-11-15T10:09:58.999Z,8.90
2022-11-15T10:12:27.664Z,9.70
2022-11-15T10:15:00.692Z,9.40
2022-11-15T10:17:46.706Z,10.05
2022-11-15T10:20:14.233Z,11.43
2022-11-15T10:22:43.251Z,10.30
2022-11-15T10:25:11.014Z,14.40
2022-11-15T10:27:38.692Z,11.57
2022-11-15T10:30:12.311Z,9.13
2022-11-15T10:32:40.072Z,13.40
2022-11-15T10:35:28.158Z,11.93
2022-11-15T10:38:12.077Z,11.10
2022-11-15T10:40:41.143Z,7.82
2022-11-15T10:43:11.779Z,8.20
2022-11-15T10:45:39.973Z,11.43
2022-11-15T10:48:13.628Z,7.70
2022-11-15T10:50:41.841Z,9.18
2022-11-15T10:53:28.272Z,12.48
2022-11-15T10:55:57.921Z,9.23
2022-11-15T10:58:25.421Z,6.75
2022-11-15T11:00:54.505Z,11.98
2022-11-15T11:03:42.550Z,7.07
2022-11-15T11:06:14.985Z,8.30
2022-11-15T11:08:43.041Z,7.85
2022-11-15T11:11:11.444Z,8.70
2022-11-15T11:13:40.439Z,4.80
2022-11-15T11:16:07.882Z,7.65
2022-11-15T11:18:47.614Z,7.53
2022-11-15T11:21:33.017Z,6.43
2022-11-15T11:24:15.100Z,4.65
2022-11-15T11:27:01.216Z,7.82
2022-11-15T11:29:37.943Z,8.77
2022-11-15T11:32:23.503Z,6.75
2022-11-15T11:35:14.072Z,5.97
2022-11-15T11:37:45.974Z,6.22
2022-11-15T11:40:28.719Z,5.57
2022-11-15T11:43:00.540Z,7.28
2022-11-15T11:45:52.101Z,5.57
2022-11-15T11:48:25.811Z,8.02
2022-11-15T11:50:54.944Z,6.03
2022-11-15T11:53:36.766Z,5.65
2022-11-15T11:56:06.722Z,5.57
2022-11-15T11:58:40.329Z,6.72
2022-11-15T12:01:14.434Z,5.70
2022-11-15T12:03:42.040Z,4.95
2022-11-15T12:06:28.409Z,4.82
2022-11-15T12:09:00.034Z,7.95
2022-11-15T12:11:39.360Z,5.10
2022-11-15T12:14:10.906Z,6.32
2022-11-15T12:16:40.404Z,7.05
2022-11-15T12:19:09.836Z,5.32
2022-11-15T12:21:41.971Z,5.45
2022-11-15T12:24:25.425Z,7.53
2022-11-15T12:27:14.812Z,5.70
2022-11-15T12:29:50.894Z,5.05
2022-11-15T12:32:31.097Z,12.77
2022-11-15T12:34:59.542Z,4.53
2022-11-15T12:37:50.943Z,6.32
2022-11-15T12:40:25.788Z,5.80
2022-11-15T12:42:59.585Z,13.70
2022-11-15T12:45:33.359Z,6.47
2022-11-15T12:48:19.378Z,5.57
2022-11-15T12:50:55.004Z,6.10
2022-11-15T12:53:36.395Z,6.15
2022-11-15T12:56:19.265Z,5.93
2022-11-15T12:58:48.366Z,6.32
2022-11-15T13:01:31.184Z,7.85
2022-11-15T13:04:17.031Z,7.90
2022-11-15T13:06:46.546Z,6.10
2022-11-15T13:09:33.501Z,6.60
2022-11-15T13:12:05.413Z,7.78
2022-11-15T13:14:40.764Z,6.30
2022-11-15T13:17:23.654Z,5.45
2022-11-15T13:19:56.312Z,8.13
2022-11-15T13:22:42.504Z,8.77
2022-11-15T13:25:28.593Z,7.63
2022-11-15T13:28:00.450Z,7.28
2022-11-15T13:30:32.753Z,6.28
2022-11-15T13:33:03.012Z,8.95
2022-11-15T13:35:32.954Z,6.95
2022-11-15T13:38:05.139Z,6.55
2022-11-15T13:40:39.312Z,6.63
2022-11-15T13:43:25.773Z,5.78
2022-11-15T13:46:14.222Z,5.97
2022-11-15T13:48:46.603Z,6.93
2022-11-15T13:51:17.153Z,6.13
2022-11-15T13:53:47.841Z,6.63
2022-11-15T13:56:17.117Z,7.28
2022-11-15T13:58:44.922Z,5.72
2022-11-15T14:01:18.841Z,7.82
2022-11-15T14:03:54.185Z,7.68
2022-11-15T14:06:23.174Z,7.15
2022-11-15T14:09:18.782Z,8.75
2022-11-15T14:11:53.792Z,7.38
2022-11-15T14:14:25.701Z,7.68
2022-11-15T14:16:57.865Z,9.90
2022-11-15T14:19:25.306Z,9.10
2022-11-15T14:22:11.876Z,8.02
2022-11-15T14:24:41.042Z,9.68
2022-11-15T14:27:29.573Z,10.13
2022-11-15T14:29:57.822Z,7.15
2022-11-15T14:32:36.142Z,9.63
2022-11-15T14:35:04.166Z,6.47
2022-11-15T14:37:36.168Z,10.80
2022-11-15T14:40:04.945Z,11.38
2022-11-15T14:42:32.950Z,8.15
2022-11-15T14:45:00.775Z,12.68
2022-11-15T14:47:28.174Z,9.52
2022-11-15T14:49:56.629Z,9.15
2022-11-15T14:52:32.959Z,7.93
2022-11-15T14:55:02.965Z,8.13
2022-11-15T14:57:31.105Z,9.45
2022-11-15T14:59:58.830Z,8.75
2022-11-15T15:02:27.012Z,8.40
2022-11-15T15:04:54.959Z,12.80
2022-11-15T15:07:22.942Z,12.30
2022-11-15T15:09:50.500Z,10.35
2022-11-15T15:12:19.415Z,12.30
2022-11-15T15:14:47.812Z,11.93
2022-11-15T15:17:15.681Z,10.48
2022-11-15T15:19:43.645Z,8.77
2022-11-15T15:22:15.245Z,28.00
2022-11-15T15:24:43.000Z,10.75
2022-11-15T15:27:10.852Z,12.52
2022-11-15T15:29:38.586Z,10.40
2022-11-15T15:32:06.533Z,9.48
2022-11-15T15:34:37.220Z,11.60
2022-11-15T15:37:21.135Z,11.85
2022-11-15T15:39:48.592Z,11.32
2022-11-15T15:42:16.066Z,10.65
2022-11-15T15:44:43.543Z,14.85
2022-11-15T15:47:15.625Z,14.18
2022-11-15T15:49:43.312Z,23.83
2022-11-15T15:52:11.265Z,25.23
2022-11-15T15:54:39.151Z,27.70
2022-11-15T15:57:07.096Z,29.00
2022-11-15T15:59:34.642Z,28.48
2022-11-15T16:02:02.241Z,31.45
2022-11-15T16:04:30.322Z,26.70
2022-11-15T16:07:01.548Z,21.67
2022-11-15T16:09:47.615Z,25.63
2022-11-15T16:12:15.921Z,30.50
2022-11-15T16:14:43.634Z,24.08
2022-11-15T16:17:18.874Z,22.95
2022-11-15T16:19:46.391Z,24.13
2022-11-15T16:22:13.814Z,17.27
2022-11-15T16:24:41.481Z,24.45
2022-11-15T16:27:29.585Z,24.95
2022-11-15T16:29:57.012Z,24.10
2022-11-15T16:32:25.617Z,22.20
2022-11-15T16:34:53.323Z,18.05
2022-11-15T16:37:24.923Z,18.23
2022-11-15T16:39:54.862Z,13.73
2022-11-15T16:42:26.025Z,18.15
2022-11-15T16:44:53.702Z,16.05
2022-11-15T16:47:21.509Z,16.38
2022-11-15T16:49:49.277Z,18.40
2022-11-15T16:52:21.180Z,25.08
2022-11-15T16:54:49.203Z,30.70
2022-11-15T16:57:17.051Z,26.65
2022-11-15T16:59:44.633Z,24.85
2022-11-15T17:02:15.411Z,28.13
2022-11-15T17:04:43.197Z,27.33
2022-11-15T17:07:11.006Z,25.13
2022-11-15T17:09:38.661Z,30.25
2022-11-15T17:12:07.150Z,25.45
2022-11-15T17:14:34.932Z,21.02
2022-11-15T17:17:02.365Z,24.33
2022-11-15T17:19:30.014Z,26.55
2022-11-15T17:21:57.610Z,20.60
2022-11-15T17:24:26.372Z,27.63
2022-11-15T17:26:53.923Z,25.65
2022-11-15T17:29:21.380Z,21.67
2022-11-15T17:31:49.303Z,27.33
2022-11-15T17:34:16.707Z,26.65
2022-11-15T17:36:44.365Z,21.33
2022-11-15T17:39:12.508Z,23.27
2022-11-15T17:41:40.225Z,18.92
2022-11-15T17:44:07.903Z,23.95
2022-11-15T17:46:36.990Z,16.80
2022-11-15T17:49:04.812Z,25.42
2022-11-15T17:51:32.344Z,38.42
2022-11-15T17:53:59.917Z,66.13
2022-11-15T17:56:28.232Z,79.70
2022-11-15T17:58:57.043Z,23.92
2022-11-15T18:01:32.200Z,29.25
2022-11-15T18:04:00.971Z,31.00
2022-11-15T18:06:32.875Z,23.85
2022-11-15T18:09:00.961Z,21.73
2022-11-15T18:11:28.932Z,18.08
2022-11-15T18:13:57.773Z,20.25
2022-11-15T18:16:26.932Z,20.83
2022-11-15T18:18:55.027Z,17.13
2022-11-15T18:21:24.083Z,14.45
2022-11-15T18:23:54.235Z,25.40
2022-11-15T18:26:27.335Z,16.33
2022-11-15T18:28:56.055Z,15.20
2022-11-15T18:31:25.842Z,17.85
2022-11-15T18:33:53.877Z,15.38
2022-11-15T18:36:27.602Z,14.73
2022-11-15T18:38:56.230Z,18.70
2022-11-15T18:41:34.776Z,19.40
2022-11-15T18:44:03.030Z,15.70
2022-11-15T18:46:32.185Z,15.70
2022-11-15T18:49:04.255Z,17.98
2022-11-15T18:51:32.661Z,14.73
2022-11-15T18:54:01.541Z,15.48
2022-11-15T18:56:30.164Z,13.65
2022-11-15T18:58:58.663Z,14.45
2022-11-15T19:01:27.802Z,14.48
2022-11-15T19:03:57.315Z,17.45
2022-11-15T19:06:26.142Z,17.55
2022-11-15T19:08:55.006Z,17.63
2022-11-15T19:11:31.542Z,18.30
2022-11-15T19:14:00.139Z,16.67
2022-11-15T19:16:29.416Z,22.70
2022-11-15T19:18:58.153Z,24.63
2022-11-15T19:21:26.390Z,21.08
2022-11-15T19:23:54.472Z,22.88
2022-11-15T19:26:23.207Z,19.83
2022-11-15T19:28:58.279Z,17.38
2022-11-15T19:31:27.196Z,18.92
2022-11-15T19:33:55.255Z,22.38
2022-11-15T19:36:24.286Z,21.48
2022-11-15T19:38:52.162Z,21.40
2022-11-15T19:41:23.434Z,20.33
2022-11-15T19:43:51.810Z,21.30
2022-11-15T19:46:20.739Z,21.10
2022-11-15T19:48:49.300Z,20.27
2022-11-15T19:51:19.545Z,20.90
2022-11-15T19:53:48.785Z,21.30
2022-11-15T19:56:17.343Z,25.23
2022-11-15T19:58:44.952Z,28.85
2022-11-15T20:01:20.019Z,19.48
2022-11-15T20:03:48.781Z,26.35
2022-11-15T20:06:18.192Z,30.75
2022-11-15T20:08:46.602Z,25.63
2022-11-15T20:11:15.555Z,30.95
2022-11-15T20:13:43.613Z,24.08
2022-11-15T20:16:15.633Z,22.27
2022-11-15T20:18:43.826Z,21.75
2022-11-15T20:21:11.316Z,28.92
2022-11-15T20:23:39.512Z,24.13
2022-11-15T20:26:08.142Z,28.17
2022-11-15T20:28:37.214Z,28.95
2022-11-15T20:31:05.107Z,18.75
2022-11-15T20:33:33.022Z,21.15
2022-11-15T20:36:04.013Z,27.70
2022-11-15T20:38:32.287Z,23.50
2022-11-15T20:41:00.724Z,28.65
2022-11-15T20:43:28.196Z,28.90
2022-11-15T20:45:55.751Z,31.10
2022-11-15T20:48:23.632Z,26.60
2022-11-15T20:50:51.296Z,32.88
2022-11-15T20:53:19.885Z,28.83
2022-11-15T20:55:48.811Z,24.60
2022-11-15T20:58:17.119Z,27.90
2022-11-15T21:00:45.927Z,29.33
2022-11-15T21:03:14.851Z,24.58
2022-11-15T21:05:44.676Z,23.92
2022-11-15T21:08:13.210Z,29.15
2022-11-15T21:11:00.320Z,30.80
2022-11-15T21:13:27.722Z,31.42
2022-11-15T21:15:59.374Z,33.20
2022-11-15T21:18:26.794Z,32.60
2022-11-15T21:20:56.027Z,30.33
2022-11-15T21:23:23.762Z,24.08
2022-11-15T21:25:52.319Z,29.50
2022-11-15T21:28:20.161Z,36.50
2022-11-15T21:30:54.931Z,31.42
2022-11-15T21:33:24.119Z,25.67
2022-11-15T21:35:52.529Z,32.92
2022-11-15T21:38:20.194Z,30.42
2022-11-15T21:40:48.248Z,27.38
2022-11-15T21:43:16.313Z,38.17
2022-11-15T21:45:43.787Z,33.67
2022-11-15T21:48:11.331Z,27.25
2022-11-15T21:50:39.348Z,33.78
2022-11-15T21:53:06.992Z,35.15
2022-11-15T21:55:34.776Z,29.90
2022-11-15T21:58:02.692Z,28.10
2022-11-15T22:00:49.661Z,29.88
2022-11-15T22:03:17.506Z,24.77
2022-11-15T22:05:45.482Z,29.77
2022-11-15T22:08:13.036Z,24.38
2022-11-15T22:10:40.612Z,26.40
2022-11-15T22:13:08.105Z,27.55
2022-11-15T22:15:35.515Z,26.45
2022-11-15T22:18:02.892Z,32.35
2022-11-15T22:20:44.024Z,29.73
2022-11-15T22:23:12.510Z,28.35
2022-11-15T22:25:39.938Z,26.45
2022-11-15T22:28:08.311Z,25.42
2022-11-15T22:30:35.761Z,30.38
2022-11-15T22:33:05.506Z,29.92
2022-11-15T22:35:34.826Z,30.45
2022-11-15T22:38:02.495Z,27.55
2022-11-15T22:40:30.214Z,28.52
2022-11-15T22:42:57.693Z,25.23
2022-11-15T22:45:25.320Z,25.85
2022-11-15T22:47:53.533Z,29.52
2022-11-15T22:50:20.989Z,28.17
2022-11-15T22:52:49.016Z,30.80
2022-11-15T22:55:16.475Z,35.00
2022-11-15T22:57:43.820Z,27.02
2022-11-15T23:00:16.226Z,27.75
2022-11-15T23:02:43.953Z,30.73
2022-11-15T23:05:11.463Z,28.65
2022-11-15T23:07:39.338Z,29.30
2022-11-15T23:10:25.937Z,28.63
2022-11-15T23:13:12.176Z,25.42
2022-11-15T23:15:58.985Z,25.20
2022-11-15T23:18:26.402Z,25.95
2022-11-15T23:20:53.942Z,22.05
2022-11-15T23:23:21.445Z,27.50
2022-11-15T23:25:49.052Z,27.45
2022-11-15T23:28:16.772Z,28.75
2022-11-15T23:31:03.206Z,35.47
2022-11-15T23:33:49.285Z,36.95
2022-11-15T23:36:17.013Z,33.78
2022-11-15T23:38:44.765Z,42.20
2022-11-15T23:41:12.502Z,39.33
2022-11-15T23:43:39.963Z,44.85
2022-11-15T23:46:07.443Z,39.85
2022-11-15T23:48:35.586Z,40.78
2022-11-15T23:51:03.086Z,42.70
2022-11-15T23:53:30.607Z,43.42
2022-11-15T23:55:59.392Z,38.65
2022-11-15T23:58:26.893Z,38.28
